sensor_id;sensor_type;location;lat;lon;timestamp;pressure;altitude;pressure_sealevel;temperature
15607;BMP180;7865;50.918;4.510;2023-04-06T00:03:48;101227.00;;;6.10
15607;BMP180;7865;50.918;4.510;2023-04-06T00:08:50;101219.00;;;6.10
15607;BMP180;7865;50.918;4.510;2023-04-06T00:13:52;101218.00;;;6.10
15607;BMP180;7865;50.918;4.510;2023-04-06T00:18:54;101213.00;;;6.20
15607;BMP180;7865;50.918;4.510;2023-04-06T00:23:57;101214.00;;;6.30
15607;BMP180;7865;50.918;4.510;2023-04-06T00:28:59;101199.00;;;6.30
15607;BMP180;7865;50.918;4.510;2023-04-06T00:34:01;101192.00;;;6.30
15607;BMP180;7865;50.918;4.510;2023-04-06T00:39:03;101195.00;;;6.30
15607;BMP180;7865;50.918;4.510;2023-04-06T00:44:06;101186.00;;;6.30
15607;BMP180;7865;50.918;4.510;2023-04-06T00:49:08;101180.00;;;6.30
15607;BMP180;7865;50.918;4.510;2023-04-06T00:54:10;101175.00;;;6.30
15607;BMP180;7865;50.918;4.510;2023-04-06T00:59:13;101176.00;;;6.30
15607;BMP180;7865;50.918;4.510;2023-04-06T01:04:16;101181.00;;;6.30
15607;BMP180;7865;50.918;4.510;2023-04-06T01:09:18;101166.00;;;6.30
15607;BMP180;7865;50.918;4.510;2023-04-06T01:14:22;101161.00;;;6.40
15607;BMP180;7865;50.918;4.510;2023-04-06T01:19:30;101160.00;;;6.40
15607;BMP180;7865;50.918;4.510;2023-04-06T01:24:33;101150.00;;;6.50
15607;BMP180;7865;50.918;4.510;2023-04-06T01:29:41;101147.00;;;6.50
15607;BMP180;7865;50.918;4.510;2023-04-06T01:34:49;101143.00;;;6.50
15607;BMP180;7865;50.918;4.510;2023-04-06T01:39:51;101135.00;;;6.50
15607;BMP180;7865;50.918;4.510;2023-04-06T01:45:07;101128.00;;;6.50
15607;BMP180;7865;50.918;4.510;2023-04-06T01:50:10;101124.00;;;6.40
15607;BMP180;7865;50.918;4.510;2023-04-06T01:55:17;101127.00;;;6.40
15607;BMP180;7865;50.918;4.510;2023-04-06T02:00:45;101121.00;;;6.30
15607;BMP180;7865;50.918;4.510;2023-04-06T02:05:48;101121.00;;;6.20
15607;BMP180;7865;50.918;4.510;2023-04-06T02:10:59;101117.00;;;6.10
15607;BMP180;7865;50.918;4.510;2023-04-06T02:16:10;101101.00;;;6.00
15607;BMP180;7865;50.918;4.510;2023-04-06T02:21:13;101101.00;;;5.90
15607;BMP180;7865;50.918;4.510;2023-04-06T02:26:15;101100.00;;;5.80
15607;BMP180;7865;50.918;4.510;2023-04-06T02:31:17;101094.00;;;5.70
15607;BMP180;7865;50.918;4.510;2023-04-06T02:36:19;101086.00;;;5.60
15607;BMP180;7865;50.918;4.510;2023-04-06T02:41:22;101081.00;;;5.60
15607;BMP180;7865;50.918;4.510;2023-04-06T02:46:24;101083.00;;;5.60
15607;BMP180;7865;50.918;4.510;2023-04-06T02:51:27;101081.00;;;5.50
15607;BMP180;7865;50.918;4.510;2023-04-06T02:56:37;101082.00;;;5.30
15607;BMP180;7865;50.918;4.510;2023-04-06T03:01:39;101069.00;;;5.20
15607;BMP180;7865;50.918;4.510;2023-04-06T03:06:42;101072.00;;;5.20
15607;BMP180;7865;50.918;4.510;2023-04-06T03:11:54;101070.00;;;5.10
15607;BMP180;7865;50.918;4.510;2023-04-06T03:16:58;101061.00;;;4.90
15607;BMP180;7865;50.918;4.510;2023-04-06T03:22:00;101062.00;;;4.80
15607;BMP180;7865;50.918;4.510;2023-04-06T03:27:02;101056.00;;;4.70
15607;BMP180;7865;50.918;4.510;2023-04-06T03:32:05;101048.00;;;4.70
15607;BMP180;7865;50.918;4.510;2023-04-06T03:37:14;101041.00;;;4.60
15607;BMP180;7865;50.918;4.510;2023-04-06T03:42:23;101046.00;;;4.50
15607;BMP180;7865;50.918;4.510;2023-04-06T03:47:35;101038.00;;;4.50
15607;BMP180;7865;50.918;4.510;2023-04-06T03:52:42;101037.00;;;4.60
15607;BMP180;7865;50.918;4.510;2023-04-06T03:57:44;101032.00;;;4.60
15607;BMP180;7865;50.918;4.510;2023-04-06T04:02:46;101035.00;;;4.70
15607;BMP180;7865;50.918;4.510;2023-04-06T04:07:48;101041.00;;;4.70
15607;BMP180;7865;50.918;4.510;2023-04-06T04:12:50;101033.00;;;4.80
15607;BMP180;7865;50.918;4.510;2023-04-06T04:17:53;101047.00;;;4.80
15607;BMP180;7865;50.918;4.510;2023-04-06T04:22:55;101048.00;;;4.80
15607;BMP180;7865;50.918;4.510;2023-04-06T04:27:57;101043.00;;;4.90
15607;BMP180;7865;50.918;4.510;2023-04-06T04:33:00;101056.00;;;4.90
15607;BMP180;7865;50.918;4.510;2023-04-06T04:38:02;101054.00;;;5.00
15607;BMP180;7865;50.918;4.510;2023-04-06T04:43:07;101056.00;;;5.10
15607;BMP180;7865;50.918;4.510;2023-04-06T04:48:10;101049.00;;;5.30
15607;BMP180;7865;50.918;4.510;2023-04-06T04:53:32;101051.00;;;5.40
15607;BMP180;7865;50.918;4.510;2023-04-06T04:58:43;101046.00;;;5.50
15607;BMP180;7865;50.918;4.510;2023-04-06T05:03:46;101055.00;;;5.60
15607;BMP180;7865;50.918;4.510;2023-04-06T05:08:51;101060.00;;;5.80
15607;BMP180;7865;50.918;4.510;2023-04-06T05:13:54;101042.00;;;5.90
15607;BMP180;7865;50.918;4.510;2023-04-06T05:18:58;101047.00;;;6.00
15607;BMP180;7865;50.918;4.510;2023-04-06T05:24:10;101052.00;;;6.10
15607;BMP180;7865;50.918;4.510;2023-04-06T05:29:17;101051.00;;;6.20
15607;BMP180;7865;50.918;4.510;2023-04-06T05:34:20;101056.00;;;6.40
15607;BMP180;7865;50.918;4.510;2023-04-06T05:39:24;101060.00;;;6.50
15607;BMP180;7865;50.918;4.510;2023-04-06T05:44:28;101057.00;;;6.60
15607;BMP180;7865;50.918;4.510;2023-04-06T05:49:41;101057.00;;;6.80
15607;BMP180;7865;50.918;4.510;2023-04-06T05:54:49;101053.00;;;7.00
15607;BMP180;7865;50.918;4.510;2023-04-06T05:59:52;101055.00;;;7.10
15607;BMP180;7865;50.918;4.510;2023-04-06T06:04:56;101059.00;;;7.10
15607;BMP180;7865;50.918;4.510;2023-04-06T06:10:02;101061.00;;;7.30
15607;BMP180;7865;50.918;4.510;2023-04-06T06:15:08;101062.00;;;7.40
15607;BMP180;7865;50.918;4.510;2023-04-06T06:20:15;101055.00;;;7.60
15607;BMP180;7865;50.918;4.510;2023-04-06T06:25:18;101058.00;;;7.70
15607;BMP180;7865;50.918;4.510;2023-04-06T06:30:22;101065.00;;;7.90
15607;BMP180;7865;50.918;4.510;2023-04-06T06:35:25;101065.00;;;8.00
15607;BMP180;7865;50.918;4.510;2023-04-06T06:40:28;101061.00;;;8.10
15607;BMP180;7865;50.918;4.510;2023-04-06T06:45:31;101066.00;;;8.20
15607;BMP180;7865;50.918;4.510;2023-04-06T06:50:33;101064.00;;;8.30
15607;BMP180;7865;50.918;4.510;2023-04-06T06:55:35;101067.00;;;8.20
15607;BMP180;7865;50.918;4.510;2023-04-06T07:00:37;101062.00;;;8.10
15607;BMP180;7865;50.918;4.510;2023-04-06T07:05:47;101062.00;;;8.00
15607;BMP180;7865;50.918;4.510;2023-04-06T07:10:56;101060.00;;;8.00
15607;BMP180;7865;50.918;4.510;2023-04-06T07:15:58;101055.00;;;8.00
15607;BMP180;7865;50.918;4.510;2023-04-06T07:21:02;101048.00;;;8.10
15607;BMP180;7865;50.918;4.510;2023-04-06T07:26:04;101059.00;;;8.10
15607;BMP180;7865;50.918;4.510;2023-04-06T07:31:07;101058.00;;;8.00
15607;BMP180;7865;50.918;4.510;2023-04-06T07:36:09;101056.00;;;8.00
15607;BMP180;7865;50.918;4.510;2023-04-06T07:41:11;101049.00;;;8.10
15607;BMP180;7865;50.918;4.510;2023-04-06T07:46:14;101052.00;;;8.30
15607;BMP180;7865;50.918;4.510;2023-04-06T07:51:17;101048.00;;;8.40
15607;BMP180;7865;50.918;4.510;2023-04-06T07:56:20;101055.00;;;8.50
15607;BMP180;7865;50.918;4.510;2023-04-06T08:01:23;101051.00;;;8.60
15607;BMP180;7865;50.918;4.510;2023-04-06T08:06:25;101049.00;;;8.80
15607;BMP180;7865;50.918;4.510;2023-04-06T08:11:28;101052.00;;;8.80
15607;BMP180;7865;50.918;4.510;2023-04-06T08:16:30;101050.00;;;8.60
15607;BMP180;7865;50.918;4.510;2023-04-06T08:21:33;101058.00;;;8.60
15607;BMP180;7865;50.918;4.510;2023-04-06T08:26:35;101053.00;;;8.80
15607;BMP180;7865;50.918;4.510;2023-04-06T08:31:37;101062.00;;;8.90
15607;BMP180;7865;50.918;4.510;2023-04-06T08:36:40;101058.00;;;9.10
15607;BMP180;7865;50.918;4.510;2023-04-06T08:41:42;101061.00;;;9.10
15607;BMP180;7865;50.918;4.510;2023-04-06T08:46:46;101058.00;;;9.00
15607;BMP180;7865;50.918;4.510;2023-04-06T08:51:49;101055.00;;;8.90
15607;BMP180;7865;50.918;4.510;2023-04-06T08:56:52;101046.00;;;8.90
15607;BMP180;7865;50.918;4.510;2023-04-06T09:01:55;101053.00;;;9.30
15607;BMP180;7865;50.918;4.510;2023-04-06T09:06:57;101053.00;;;9.60
15607;BMP180;7865;50.918;4.510;2023-04-06T09:11:59;101055.00;;;9.60
15607;BMP180;7865;50.918;4.510;2023-04-06T09:17:07;101056.00;;;9.60
15607;BMP180;7865;50.918;4.510;2023-04-06T09:22:09;101048.00;;;9.40
15607;BMP180;7865;50.918;4.510;2023-04-06T09:27:12;101045.00;;;9.30
15607;BMP180;7865;50.918;4.510;2023-04-06T09:32:15;101040.00;;;9.50
15607;BMP180;7865;50.918;4.510;2023-04-06T09:37:19;101038.00;;;9.90
15607;BMP180;7865;50.918;4.510;2023-04-06T09:42:24;101043.00;;;9.80
15607;BMP180;7865;50.918;4.510;2023-04-06T09:47:28;101026.00;;;9.70
15607;BMP180;7865;50.918;4.510;2023-04-06T09:52:37;101035.00;;;9.40
15607;BMP180;7865;50.918;4.510;2023-04-06T09:58:10;101031.00;;;9.30
15607;BMP180;7865;50.918;4.510;2023-04-06T10:03:21;101020.00;;;9.10
15607;BMP180;7865;50.918;4.510;2023-04-06T10:08:29;101032.00;;;9.20
15607;BMP180;7865;50.918;4.510;2023-04-06T10:13:33;101035.00;;;9.50
15607;BMP180;7865;50.918;4.510;2023-04-06T10:18:37;101030.00;;;9.50
15607;BMP180;7865;50.918;4.510;2023-04-06T10:23:52;101029.00;;;9.60
15607;BMP180;7865;50.918;4.510;2023-04-06T10:29:03;101030.00;;;9.70
15607;BMP180;7865;50.918;4.510;2023-04-06T10:34:05;101027.00;;;9.90
15607;BMP180;7865;50.918;4.510;2023-04-06T10:39:08;101029.00;;;10.00
15607;BMP180;7865;50.918;4.510;2023-04-06T10:44:17;101018.00;;;10.10
15607;BMP180;7865;50.918;4.510;2023-04-06T10:49:21;101023.00;;;10.10
15607;BMP180;7865;50.918;4.510;2023-04-06T10:54:27;101019.00;;;9.90
15607;BMP180;7865;50.918;4.510;2023-04-06T10:59:30;101007.00;;;10.20
15607;BMP180;7865;50.918;4.510;2023-04-06T11:04:32;100999.00;;;10.50
15607;BMP180;7865;50.918;4.510;2023-04-06T11:09:34;100995.00;;;10.30
15607;BMP180;7865;50.918;4.510;2023-04-06T11:14:38;101001.00;;;10.20
15607;BMP180;7865;50.918;4.510;2023-04-06T11:19:40;100993.00;;;10.10
15607;BMP180;7865;50.918;4.510;2023-04-06T11:24:42;100991.00;;;10.20
15607;BMP180;7865;50.918;4.510;2023-04-06T11:29:44;100989.00;;;10.10
15607;BMP180;7865;50.918;4.510;2023-04-06T11:34:49;100978.00;;;10.30
15607;BMP180;7865;50.918;4.510;2023-04-06T11:39:53;100983.00;;;10.30
15607;BMP180;7865;50.918;4.510;2023-04-06T11:44:57;100974.00;;;10.60
15607;BMP180;7865;50.918;4.510;2023-04-06T11:50:07;100975.00;;;10.60
15607;BMP180;7865;50.918;4.510;2023-04-06T11:55:11;100978.00;;;10.80
15607;BMP180;7865;50.918;4.510;2023-04-06T12:00:15;100964.00;;;10.60
15607;BMP180;7865;50.918;4.510;2023-04-06T12:05:17;100965.00;;;10.40
15607;BMP180;7865;50.918;4.510;2023-04-06T12:10:19;100965.00;;;10.60
15607;BMP180;7865;50.918;4.510;2023-04-06T12:15:21;100970.00;;;10.90
15607;BMP180;7865;50.918;4.510;2023-04-06T12:20:23;100961.00;;;10.90
15607;BMP180;7865;50.918;4.510;2023-04-06T12:25:28;100954.00;;;11.10
15607;BMP180;7865;50.918;4.510;2023-04-06T12:30:32;100949.00;;;11.40
15607;BMP180;7865;50.918;4.510;2023-04-06T12:35:34;100947.00;;;11.20
15607;BMP180;7865;50.918;4.510;2023-04-06T12:40:38;100946.00;;;11.10
15607;BMP180;7865;50.918;4.510;2023-04-06T12:45:40;100942.00;;;10.80
15607;BMP180;7865;50.918;4.510;2023-04-06T12:50:43;100932.00;;;10.60
15607;BMP180;7865;50.918;4.510;2023-04-06T12:55:45;100929.00;;;10.60
15607;BMP180;7865;50.918;4.510;2023-04-06T13:00:48;100917.00;;;10.90
15607;BMP180;7865;50.918;4.510;2023-04-06T13:05:50;100916.00;;;10.90
15607;BMP180;7865;50.918;4.510;2023-04-06T13:10:53;100920.00;;;10.50
15607;BMP180;7865;50.918;4.510;2023-04-06T13:16:00;100910.00;;;10.20
15607;BMP180;7865;50.918;4.510;2023-04-06T13:21:06;100900.00;;;10.00
15607;BMP180;7865;50.918;4.510;2023-04-06T13:26:08;100891.00;;;9.80
15607;BMP180;7865;50.918;4.510;2023-04-06T13:31:11;100896.00;;;9.80
15607;BMP180;7865;50.918;4.510;2023-04-06T13:36:13;100897.00;;;10.00
15607;BMP180;7865;50.918;4.510;2023-04-06T13:41:20;100892.00;;;10.00
15607;BMP180;7865;50.918;4.510;2023-04-06T13:46:22;100885.00;;;10.00
15607;BMP180;7865;50.918;4.510;2023-04-06T13:51:26;100875.00;;;10.00
15607;BMP180;7865;50.918;4.510;2023-04-06T13:56:28;100886.00;;;10.20
15607;BMP180;7865;50.918;4.510;2023-04-06T14:01:30;100880.00;;;10.30
15607;BMP180;7865;50.918;4.510;2023-04-06T14:06:32;100877.00;;;10.50
15607;BMP180;7865;50.918;4.510;2023-04-06T14:11:34;100868.00;;;10.80
15607;BMP180;7865;50.918;4.510;2023-04-06T14:16:38;100865.00;;;10.40
15607;BMP180;7865;50.918;4.510;2023-04-06T14:21:43;100862.00;;;10.30
15607;BMP180;7865;50.918;4.510;2023-04-06T14:26:46;100859.00;;;10.40
15607;BMP180;7865;50.918;4.510;2023-04-06T14:31:48;100849.00;;;10.40
15607;BMP180;7865;50.918;4.510;2023-04-06T14:36:50;100850.00;;;10.30
15607;BMP180;7865;50.918;4.510;2023-04-06T14:41:52;100845.00;;;10.10
15607;BMP180;7865;50.918;4.510;2023-04-06T14:46:54;100844.00;;;10.20
15607;BMP180;7865;50.918;4.510;2023-04-06T14:51:56;100838.00;;;10.70
15607;BMP180;7865;50.918;4.510;2023-04-06T14:56:59;100844.00;;;10.60
15607;BMP180;7865;50.918;4.510;2023-04-06T15:02:03;100839.00;;;10.60
15607;BMP180;7865;50.918;4.510;2023-04-06T15:07:05;100835.00;;;10.60
15607;BMP180;7865;50.918;4.510;2023-04-06T15:12:07;100827.00;;;10.70
15607;BMP180;7865;50.918;4.510;2023-04-06T15:17:09;100831.00;;;10.80
15607;BMP180;7865;50.918;4.510;2023-04-06T15:22:11;100828.00;;;10.80
15607;BMP180;7865;50.918;4.510;2023-04-06T15:27:13;100829.00;;;10.90
15607;BMP180;7865;50.918;4.510;2023-04-06T15:32:15;100824.00;;;10.80
15607;BMP180;7865;50.918;4.510;2023-04-06T15:37:17;100824.00;;;10.50
15607;BMP180;7865;50.918;4.510;2023-04-06T15:42:20;100820.00;;;10.50
15607;BMP180;7865;50.918;4.510;2023-04-06T15:47:21;100825.00;;;10.70
15607;BMP180;7865;50.918;4.510;2023-04-06T15:52:24;100819.00;;;11.30
15607;BMP180;7865;50.918;4.510;2023-04-06T15:57:26;100831.00;;;11.40
15607;BMP180;7865;50.918;4.510;2023-04-06T16:02:28;100822.00;;;11.20
15607;BMP180;7865;50.918;4.510;2023-04-06T16:07:31;100829.00;;;10.90
15607;BMP180;7865;50.918;4.510;2023-04-06T16:12:33;100821.00;;;10.90
15607;BMP180;7865;50.918;4.510;2023-04-06T16:17:35;100821.00;;;10.80
15607;BMP180;7865;50.918;4.510;2023-04-06T16:22:37;100819.00;;;10.60
15607;BMP180;7865;50.918;4.510;2023-04-06T16:27:39;100813.00;;;10.50
15607;BMP180;7865;50.918;4.510;2023-04-06T16:32:41;100817.00;;;10.40
15607;BMP180;7865;50.918;4.510;2023-04-06T16:37:44;100810.00;;;10.30
15607;BMP180;7865;50.918;4.510;2023-04-06T16:42:47;100800.00;;;10.20
15607;BMP180;7865;50.918;4.510;2023-04-06T16:47:49;100809.00;;;10.30
15607;BMP180;7865;50.918;4.510;2023-04-06T16:52:51;100803.00;;;10.40
15607;BMP180;7865;50.918;4.510;2023-04-06T16:57:54;100807.00;;;10.60
15607;BMP180;7865;50.918;4.510;2023-04-06T17:02:56;100810.00;;;10.50
15607;BMP180;7865;50.918;4.510;2023-04-06T17:07:59;100808.00;;;10.40
15607;BMP180;7865;50.918;4.510;2023-04-06T17:13:01;100801.00;;;10.30
15607;BMP180;7865;50.918;4.510;2023-04-06T17:18:03;100803.00;;;10.30
15607;BMP180;7865;50.918;4.510;2023-04-06T17:23:05;100807.00;;;10.20
15607;BMP180;7865;50.918;4.510;2023-04-06T17:28:07;100801.00;;;10.20
15607;BMP180;7865;50.918;4.510;2023-04-06T17:33:09;100803.00;;;10.20
15607;BMP180;7865;50.918;4.510;2023-04-06T17:38:13;100814.00;;;10.20
15607;BMP180;7865;50.918;4.510;2023-04-06T17:43:15;100814.00;;;10.10
15607;BMP180;7865;50.918;4.510;2023-04-06T17:48:18;100810.00;;;10.00
15607;BMP180;7865;50.918;4.510;2023-04-06T17:53:20;100822.00;;;9.90
15607;BMP180;7865;50.918;4.510;2023-04-06T17:58:22;100811.00;;;9.80
15607;BMP180;7865;50.918;4.510;2023-04-06T18:03:24;100809.00;;;9.80
15607;BMP180;7865;50.918;4.510;2023-04-06T18:08:26;100820.00;;;9.70
15607;BMP180;7865;50.918;4.510;2023-04-06T18:13:29;100831.00;;;9.70
15607;BMP180;7865;50.918;4.510;2023-04-06T18:18:31;100826.00;;;9.60
15607;BMP180;7865;50.918;4.510;2023-04-06T18:23:33;100832.00;;;9.60
15607;BMP180;7865;50.918;4.510;2023-04-06T18:28:35;100835.00;;;9.60
15607;BMP180;7865;50.918;4.510;2023-04-06T18:33:37;100851.00;;;9.60
15607;BMP180;7865;50.918;4.510;2023-04-06T18:38:41;100845.00;;;9.60
15607;BMP180;7865;50.918;4.510;2023-04-06T18:43:43;100853.00;;;9.60
15607;BMP180;7865;50.918;4.510;2023-04-06T18:48:45;100859.00;;;9.60
15607;BMP180;7865;50.918;4.510;2023-04-06T18:53:47;100868.00;;;9.50
15607;BMP180;7865;50.918;4.510;2023-04-06T18:58:49;100861.00;;;9.50
15607;BMP180;7865;50.918;4.510;2023-04-06T19:03:52;100879.00;;;9.50
15607;BMP180;7865;50.918;4.510;2023-04-06T19:08:54;100876.00;;;9.30
15607;BMP180;7865;50.918;4.510;2023-04-06T19:13:57;100876.00;;;9.20
15607;BMP180;7865;50.918;4.510;2023-04-06T19:18:59;100879.00;;;9.10
15607;BMP180;7865;50.918;4.510;2023-04-06T19:24:02;100891.00;;;9.10
15607;BMP180;7865;50.918;4.510;2023-04-06T19:29:03;100881.00;;;9.10
15607;BMP180;7865;50.918;4.510;2023-04-06T19:34:05;100890.00;;;9.10
15607;BMP180;7865;50.918;4.510;2023-04-06T19:39:08;100895.00;;;9.10
15607;BMP180;7865;50.918;4.510;2023-04-06T19:44:11;100904.00;;;9.10
15607;BMP180;7865;50.918;4.510;2023-04-06T19:49:13;100904.00;;;9.10
15607;BMP180;7865;50.918;4.510;2023-04-06T19:54:14;100905.00;;;9.10
15607;BMP180;7865;50.918;4.510;2023-04-06T19:59:17;100914.00;;;9.10
15607;BMP180;7865;50.918;4.510;2023-04-06T20:04:19;100916.00;;;9.10
15607;BMP180;7865;50.918;4.510;2023-04-06T20:09:21;100912.00;;;9.10
15607;BMP180;7865;50.918;4.510;2023-04-06T20:14:23;100914.00;;;9.10
15607;BMP180;7865;50.918;4.510;2023-04-06T20:19:27;100930.00;;;9.10
15607;BMP180;7865;50.918;4.510;2023-04-06T20:24:29;100931.00;;;9.10
15607;BMP180;7865;50.918;4.510;2023-04-06T20:29:32;100938.00;;;9.00
15607;BMP180;7865;50.918;4.510;2023-04-06T20:34:33;100942.00;;;8.90
15607;BMP180;7865;50.918;4.510;2023-04-06T20:39:36;100933.00;;;8.90
15607;BMP180;7865;50.918;4.510;2023-04-06T20:44:38;100943.00;;;8.90
15607;BMP180;7865;50.918;4.510;2023-04-06T20:49:40;100956.00;;;8.90
15607;BMP180;7865;50.918;4.510;2023-04-06T20:54:42;100954.00;;;8.90
15607;BMP180;7865;50.918;4.510;2023-04-06T20:59:44;100954.00;;;8.90
15607;BMP180;7865;50.918;4.510;2023-04-06T21:04:46;100971.00;;;8.90
15607;BMP180;7865;50.918;4.510;2023-04-06T21:09:48;100972.00;;;8.90
15607;BMP180;7865;50.918;4.510;2023-04-06T21:14:50;100962.00;;;8.80
15607;BMP180;7865;50.918;4.510;2023-04-06T21:19:53;100967.00;;;8.80
15607;BMP180;7865;50.918;4.510;2023-04-06T21:24:55;100967.00;;;8.80
15607;BMP180;7865;50.918;4.510;2023-04-06T21:29:57;100973.00;;;8.70
15607;BMP180;7865;50.918;4.510;2023-04-06T21:34:59;100980.00;;;8.70
15607;BMP180;7865;50.918;4.510;2023-04-06T21:40:01;100965.00;;;8.60
15607;BMP180;7865;50.918;4.510;2023-04-06T21:45:05;100968.00;;;8.60
15607;BMP180;7865;50.918;4.510;2023-04-06T21:50:07;100975.00;;;8.50
15607;BMP180;7865;50.918;4.510;2023-04-06T21:55:10;100985.00;;;8.50
15607;BMP180;7865;50.918;4.510;2023-04-06T22:00:12;100979.00;;;8.50
15607;BMP180;7865;50.918;4.510;2023-04-06T22:05:17;100992.00;;;8.50
15607;BMP180;7865;50.918;4.510;2023-04-06T22:10:19;100985.00;;;8.50
15607;BMP180;7865;50.918;4.510;2023-04-06T22:15:21;100984.00;;;8.50
15607;BMP180;7865;50.918;4.510;2023-04-06T22:20:23;100980.00;;;8.50
15607;BMP180;7865;50.918;4.510;2023-04-06T22:25:25;100967.00;;;8.50
15607;BMP180;7865;50.918;4.510;2023-04-06T22:30:27;100986.00;;;8.50
15607;BMP180;7865;50.918;4.510;2023-04-06T22:35:29;100981.00;;;8.50
15607;BMP180;7865;50.918;4.510;2023-04-06T22:40:32;100979.00;;;8.50
15607;BMP180;7865;50.918;4.510;2023-04-06T22:45:33;100978.00;;;8.40
15607;BMP180;7865;50.918;4.510;2023-04-06T22:50:35;100980.00;;;8.40
15607;BMP180;7865;50.918;4.510;2023-04-06T22:55:38;100990.00;;;8.40
15607;BMP180;7865;50.918;4.510;2023-04-06T23:00:41;100984.00;;;8.40
15607;BMP180;7865;50.918;4.510;2023-04-06T23:05:43;100979.00;;;8.40
15607;BMP180;7865;50.918;4.510;2023-04-06T23:10:45;100970.00;;;8.40
15607;BMP180;7865;50.918;4.510;2023-04-06T23:15:47;100969.00;;;8.30
15607;BMP180;7865;50.918;4.510;2023-04-06T23:20:49;100966.00;;;8.30
15607;BMP180;7865;50.918;4.510;2023-04-06T23:25:51;100965.00;;;8.20
15607;BMP180;7865;50.918;4.510;2023-04-06T23:30:53;100969.00;;;8.20
15607;BMP180;7865;50.918;4.510;2023-04-06T23:35:55;100967.00;;;8.20
15607;BMP180;7865;50.918;4.510;2023-04-06T23:40:57;100969.00;;;8.20
15607;BMP180;7865;50.918;4.510;2023-04-06T23:45:59;100978.00;;;8.20
15607;BMP180;7865;50.918;4.510;2023-04-06T23:51:02;100987.00;;;8.20
15607;BMP180;7865;50.918;4.510;2023-04-06T23:56:04;100991.00;;;8.20
